createdAt,value
2018-09-02T00:00:27.272Z,95.90
2018-09-02T00:02:56.216Z,96.00
2018-09-02T00:05:25.236Z,96.00
2018-09-02T00:07:54.009Z,96.10
2018-09-02T00:10:22.932Z,96.20
2018-09-02T00:12:52.115Z,96.10
2018-09-02T00:15:21.388Z,96.00
2018-09-02T00:17:50.400Z,95.90
2018-09-02T00:20:19.315Z,95.80
2018-09-02T00:22:48.202Z,95.90
2018-09-02T00:25:17.402Z,96.10
2018-09-02T00:27:46.452Z,95.90
2018-09-02T00:30:15.636Z,96.00
2018-09-02T00:32:44.569Z,96.00
2018-09-02T00:35:13.710Z,95.90
2018-09-02T00:37:43.768Z,95.80
2018-09-02T00:40:12.811Z,95.80
2018-09-02T00:42:41.808Z,95.80
2018-09-02T00:45:10.877Z,95.90
2018-09-02T00:47:39.897Z,95.90
2018-09-02T00:50:09.275Z,95.90
2018-09-02T00:52:38.567Z,95.90
2018-09-02T00:55:07.675Z,95.90
2018-09-02T00:57:36.503Z,96.00
2018-09-02T01:00:06.823Z,95.80
2018-09-02T01:02:35.656Z,95.90
2018-09-02T01:05:05.096Z,95.80
2018-09-02T01:07:33.922Z,95.80
2018-09-02T01:10:02.976Z,95.60
2018-09-02T01:12:31.871Z,95.70
2018-09-02T01:15:00.809Z,95.70
2018-09-02T01:17:29.670Z,95.90
2018-09-02T01:19:58.558Z,95.90
2018-09-02T01:22:27.420Z,96.10
2018-09-02T01:24:56.313Z,96.00
2018-09-02T01:27:25.236Z,96.20
2018-09-02T01:29:54.129Z,96.20
2018-09-02T01:32:23.080Z,96.10
2018-09-02T01:34:51.996Z,96.10
2018-09-02T01:37:21.588Z,95.70
2018-09-02T01:39:50.642Z,95.60
2018-09-02T01:42:19.710Z,95.70
2018-09-02T01:44:48.747Z,95.70
2018-09-02T01:47:18.919Z,95.80
2018-09-02T01:49:49.476Z,95.80
2018-09-02T01:52:20.468Z,95.80
2018-09-02T01:54:49.304Z,95.90
2018-09-02T01:57:18.984Z,95.70
2018-09-02T01:59:47.850Z,95.60
2018-09-02T02:02:16.721Z,95.80
2018-09-02T02:04:45.549Z,95.90
2018-09-02T02:07:14.464Z,95.80
2018-09-02T02:09:43.245Z,95.80
2018-09-02T02:12:12.255Z,95.70
2018-09-02T02:14:41.068Z,95.80
2018-09-02T02:17:09.831Z,95.60
2018-09-02T02:19:38.812Z,95.80
2018-09-02T02:22:07.645Z,95.60
2018-09-02T02:24:36.529Z,95.60
2018-09-02T02:27:05.489Z,95.60
2018-09-02T02:29:34.338Z,95.70
2018-09-02T02:32:03.161Z,95.70
2018-09-02T02:34:31.891Z,95.80
2018-09-02T02:37:00.741Z,95.90
2018-09-02T02:39:29.493Z,95.90
2018-09-02T02:41:58.311Z,96.10
2018-09-02T02:44:27.128Z,96.30
2018-09-02T02:46:55.941Z,96.10
2018-09-02T02:49:25.094Z,96.10
2018-09-02T02:51:53.859Z,96.10
2018-09-02T02:54:22.815Z,96.30
2018-09-02T02:56:51.663Z,96.10
2018-09-02T02:59:20.551Z,96.20
2018-09-02T03:01:49.376Z,96.10
2018-09-02T03:04:18.236Z,95.80
2018-09-02T03:06:47.260Z,95.90
2018-09-02T03:09:16.206Z,95.90
2018-09-02T03:11:45.077Z,95.80
2018-09-02T03:14:13.945Z,95.90
2018-09-02T03:16:42.827Z,95.90
2018-09-02T03:19:11.672Z,95.90
2018-09-02T03:21:40.503Z,96.00
2018-09-02T03:44:19.168Z,95.80
2018-09-02T03:46:47.967Z,95.80
2018-09-02T03:49:16.796Z,95.80
2018-09-02T03:51:45.764Z,95.90
2018-09-02T03:54:14.659Z,95.90
2018-09-02T03:56:43.460Z,95.70
2018-09-02T03:59:12.332Z,95.90
2018-09-02T04:01:41.173Z,95.80
2018-09-02T04:04:09.935Z,95.80
2018-09-02T04:06:38.771Z,95.80
2018-09-02T04:09:09.598Z,95.90
2018-09-02T04:11:38.461Z,95.70
2018-09-02T04:14:07.361Z,95.80
2018-09-02T04:16:36.302Z,95.70
2018-09-02T04:19:05.244Z,95.70
2018-09-02T04:21:34.362Z,95.70
2018-09-02T04:24:03.377Z,95.80
2018-09-02T04:26:32.205Z,95.80
2018-09-02T04:29:01.231Z,95.80
2018-09-02T04:31:30.040Z,95.90
2018-09-02T04:33:58.887Z,95.80
2018-09-02T04:36:27.657Z,95.80
2018-09-02T04:38:56.433Z,95.80
2018-09-02T04:41:25.231Z,95.80
2018-09-02T04:43:54.022Z,95.70
2018-09-02T04:46:22.807Z,95.70
2018-09-02T04:48:51.647Z,95.70
2018-09-02T04:51:20.644Z,95.80
2018-09-02T04:53:49.465Z,95.80
2018-09-02T04:56:18.241Z,95.70
2018-09-02T04:58:47.069Z,95.80
2018-09-02T05:01:15.842Z,95.80
2018-09-02T05:03:44.932Z,95.80
2018-09-02T05:06:13.768Z,95.60
2018-09-02T05:08:42.609Z,95.50
2018-09-02T05:11:11.568Z,95.60
2018-09-02T05:13:40.363Z,95.70
2018-09-02T05:16:09.168Z,95.60
2018-09-02T05:18:37.996Z,95.60
2018-09-02T05:21:07.815Z,95.50
2018-09-02T05:23:36.597Z,95.40
2018-09-02T05:26:05.523Z,95.30
2018-09-02T05:28:34.365Z,95.40
2018-09-02T05:31:03.128Z,95.50
2018-09-02T05:33:31.942Z,95.40
2018-09-02T05:36:00.766Z,95.40
2018-09-02T05:38:29.636Z,95.50
2018-09-02T05:40:58.512Z,95.40
2018-09-02T05:43:27.282Z,95.40
2018-09-02T05:45:56.051Z,95.40
2018-09-02T05:48:24.874Z,95.40
2018-09-02T05:50:53.797Z,95.50
2018-09-02T05:53:22.659Z,95.50
2018-09-02T05:55:51.428Z,95.30
2018-09-02T05:58:20.295Z,95.30
2018-09-02T06:00:49.149Z,95.30
2018-09-02T06:03:19.011Z,95.40
2018-09-02T06:05:48.002Z,95.50
2018-09-02T06:08:16.830Z,95.40
2018-09-02T06:10:45.611Z,95.40
2018-09-02T06:13:14.410Z,95.40
2018-09-02T06:15:43.155Z,95.50
2018-09-02T06:18:11.919Z,95.50
2018-09-02T06:20:40.892Z,95.20
2018-09-02T06:23:09.729Z,95.10
2018-09-02T06:25:38.520Z,94.80
2018-09-02T06:28:07.396Z,94.80
2018-09-02T06:30:36.164Z,94.70
2018-09-02T06:33:06.008Z,94.60
2018-09-02T06:35:34.818Z,94.80
2018-09-02T06:38:03.741Z,94.80
2018-09-02T06:40:32.618Z,94.70
2018-09-02T06:43:01.369Z,94.50
2018-09-02T06:45:30.216Z,94.20
2018-09-02T06:47:59.067Z,93.80
2018-09-02T06:50:27.868Z,93.80
2018-09-02T06:52:56.630Z,94.00
2018-09-02T06:55:25.383Z,94.10
2018-09-02T06:57:54.266Z,93.80
2018-09-02T07:00:23.067Z,93.50
2018-09-02T07:02:52.960Z,93.60
2018-09-02T07:05:21.881Z,93.40
2018-09-02T07:07:51.716Z,93.40
2018-09-02T07:10:20.498Z,93.20
2018-09-02T07:12:49.305Z,93.20
2018-09-02T07:15:18.396Z,93.20
2018-09-02T07:17:47.196Z,93.30
2018-09-02T07:20:16.011Z,93.30
2018-09-02T07:22:44.788Z,93.20
2018-09-02T07:25:13.672Z,93.20
2018-09-02T07:27:42.398Z,93.40
2018-09-02T07:30:11.283Z,93.20
2018-09-02T07:32:40.092Z,93.40
2018-09-02T07:35:09.175Z,93.90
2018-09-02T07:37:38.027Z,93.60
2018-09-02T07:40:06.932Z,93.50
2018-09-02T07:42:35.840Z,93.50
2018-09-02T07:45:04.827Z,93.60
2018-09-02T07:47:33.748Z,93.40
2018-09-02T07:50:02.561Z,93.30
2018-09-02T07:52:32.363Z,93.60
2018-09-02T07:55:01.245Z,93.50
2018-09-02T07:57:30.072Z,93.70
2018-09-02T07:59:59.000Z,93.70
2018-09-02T08:02:27.821Z,93.40
2018-09-02T08:04:56.576Z,93.00
2018-09-02T08:07:25.497Z,92.70
2018-09-02T08:09:54.466Z,92.50
2018-09-02T08:12:23.474Z,92.40
2018-09-02T08:14:52.202Z,92.20
2018-09-02T08:17:21.224Z,91.80
2018-09-02T08:19:50.080Z,92.10
2018-09-02T08:22:18.916Z,92.10
2018-09-02T08:24:47.864Z,92.10
2018-09-02T08:27:16.797Z,92.20
2018-09-02T08:29:45.629Z,92.30
2018-09-02T08:32:14.388Z,92.40
2018-09-02T08:34:43.268Z,92.20
2018-09-02T08:37:12.028Z,92.10
2018-09-02T08:39:41.136Z,92.20
2018-09-02T08:42:09.984Z,92.30
2018-09-02T08:44:39.752Z,92.40
2018-09-02T08:47:08.588Z,92.30
2018-09-02T08:49:37.316Z,92.10
2018-09-02T08:52:06.508Z,92.00
2018-09-02T08:54:35.286Z,92.30
2018-09-02T08:57:04.122Z,92.10
2018-09-02T08:59:32.900Z,92.10
2018-09-02T09:02:01.672Z,92.20
2018-09-02T09:04:30.488Z,92.20
2018-09-02T09:06:59.264Z,92.50
2018-09-02T09:09:28.068Z,92.20
2018-09-02T09:11:56.973Z,92.30
2018-09-02T09:14:25.838Z,92.10
2018-09-02T09:16:54.698Z,92.00
2018-09-02T09:19:23.503Z,92.10
2018-09-02T09:21:52.289Z,91.50
2018-09-02T09:24:21.989Z,91.40
2018-09-02T09:26:50.858Z,91.60
2018-09-02T09:29:19.956Z,91.90
2018-09-02T09:31:48.836Z,92.00
2018-09-02T09:34:17.680Z,91.30
2018-09-02T09:36:46.601Z,91.10
2018-09-02T09:39:15.420Z,91.30
2018-09-02T09:41:44.389Z,91.00
2018-09-02T09:44:13.392Z,91.00
2018-09-02T09:46:42.431Z,90.70
2018-09-02T09:49:12.504Z,91.00
2018-09-02T09:51:41.920Z,90.70
2018-09-02T09:54:11.071Z,90.20
2018-09-02T09:56:40.038Z,90.40
2018-09-02T09:59:08.989Z,90.40
2018-09-02T10:01:38.029Z,90.10
2018-09-02T10:04:08.022Z,89.10
2018-09-02T10:06:37.250Z,88.70
2018-09-02T10:09:10.896Z,90.00
2018-09-02T10:11:39.931Z,90.40
2018-09-02T10:14:09.014Z,90.80
2018-09-02T10:16:37.968Z,90.80
2018-09-02T10:19:07.180Z,90.50
2018-09-02T10:21:36.218Z,90.90
2018-09-02T10:24:05.680Z,89.40
2018-09-02T10:26:34.480Z,89.60
2018-09-02T10:29:03.373Z,90.20
2018-09-02T10:31:32.355Z,90.40
2018-09-02T10:34:01.231Z,90.10
2018-09-02T10:36:30.256Z,90.50
2018-09-02T10:38:59.060Z,90.40
2018-09-02T10:41:27.991Z,90.20
2018-09-02T10:43:56.857Z,90.50
2018-09-02T10:46:26.997Z,90.90
2018-09-02T10:48:55.904Z,90.80
2018-09-02T10:51:24.836Z,89.00
2018-09-02T10:53:53.820Z,90.00
2018-09-02T10:56:22.785Z,90.30
2018-09-02T10:58:51.639Z,89.50
2018-09-02T11:01:20.568Z,90.30
2018-09-02T11:03:49.449Z,89.80
2018-09-02T11:06:18.176Z,90.00
2018-09-02T11:08:47.117Z,89.60
2018-09-02T11:11:16.091Z,90.20
2018-09-02T11:13:45.018Z,90.70
2018-09-02T11:16:13.980Z,90.60
2018-09-02T11:18:42.853Z,91.10
2018-09-02T11:21:11.805Z,90.80
2018-09-02T11:23:40.688Z,91.00
2018-09-02T11:26:09.603Z,91.20
2018-09-02T11:28:38.548Z,90.90
2018-09-02T11:31:08.440Z,90.60
2018-09-02T11:33:37.230Z,90.30
2018-09-02T11:36:06.469Z,90.60
2018-09-02T11:38:35.160Z,90.30
2018-09-02T11:41:03.938Z,90.90
2018-09-02T11:43:33.364Z,91.30
2018-09-02T11:46:02.161Z,90.60
2018-09-02T11:48:31.039Z,90.40
2018-09-02T11:50:59.731Z,90.30
2018-09-02T11:53:28.704Z,90.10
2018-09-02T11:55:57.493Z,90.30
2018-09-02T11:58:26.308Z,89.80
2018-09-02T12:00:55.271Z,89.60
2018-09-02T12:03:23.984Z,89.90
2018-09-02T12:05:52.763Z,89.70
2018-09-02T12:08:22.564Z,89.50
2018-09-02T12:10:52.331Z,88.40
2018-09-02T12:13:21.719Z,89.20
2018-09-02T12:15:51.488Z,87.90
2018-09-02T12:18:20.398Z,88.90
2018-09-02T12:20:49.177Z,87.20
2018-09-02T12:23:17.868Z,88.30
2018-09-02T12:25:46.639Z,87.40
2018-09-02T12:28:15.543Z,86.90
2018-09-02T12:30:44.702Z,87.20
2018-09-02T12:33:13.471Z,87.40
2018-09-02T12:35:42.279Z,87.10
2018-09-02T12:38:13.030Z,87.40
2018-09-02T12:40:41.740Z,88.00
2018-09-02T12:43:10.471Z,88.00
2018-09-02T12:45:40.073Z,87.20
2018-09-02T12:48:08.956Z,88.80
2018-09-02T12:50:37.736Z,88.40
2018-09-02T12:53:06.588Z,88.40
2018-09-02T12:55:35.534Z,88.20
2018-09-02T12:58:04.424Z,89.20
2018-09-02T13:00:34.807Z,88.40
2018-09-02T13:03:04.761Z,88.90
2018-09-02T13:05:33.571Z,88.70
2018-09-02T13:08:02.384Z,87.90
2018-09-02T13:10:31.189Z,89.40
2018-09-02T13:12:59.873Z,89.30
2018-09-02T13:15:28.672Z,89.70
2018-09-02T13:17:57.452Z,87.80
2018-09-02T13:20:26.315Z,87.50
2018-09-02T13:22:55.490Z,87.10
2018-09-02T13:25:26.056Z,87.10
2018-09-02T13:27:55.047Z,86.80
2018-09-02T13:30:23.809Z,86.30
2018-09-02T13:32:54.736Z,86.60
2018-09-02T13:35:23.491Z,87.00
2018-09-02T13:37:52.650Z,86.60
2018-09-02T13:40:21.745Z,86.60
2018-09-02T13:42:50.889Z,86.70
2018-09-02T13:45:19.721Z,86.40
2018-09-02T13:47:48.839Z,86.50
2018-09-02T13:50:17.850Z,85.70
2018-09-02T13:52:46.610Z,85.60
2018-09-02T13:55:15.509Z,85.60
2018-09-02T13:57:44.223Z,84.70
2018-09-02T14:00:13.616Z,82.90
2018-09-02T14:02:42.556Z,84.60
2018-09-02T14:05:11.387Z,84.20
2018-09-02T14:07:40.255Z,83.70
2018-09-02T14:10:09.152Z,82.90
2018-09-02T14:12:38.017Z,83.20
2018-09-02T14:15:07.900Z,83.40
2018-09-02T14:17:36.668Z,82.00
2018-09-02T14:20:05.588Z,82.10
2018-09-02T14:22:34.612Z,82.30
2018-09-02T14:25:04.370Z,83.70
2018-09-02T14:27:33.201Z,83.70
2018-09-02T14:30:02.152Z,83.60
2018-09-02T14:32:31.060Z,84.40
2018-09-02T14:34:59.944Z,84.40
2018-09-02T14:37:28.717Z,82.40
2018-09-02T14:39:57.681Z,83.30
2018-09-02T14:42:26.726Z,83.00
2018-09-02T14:44:56.279Z,83.60
2018-09-02T14:47:25.922Z,83.60
2018-09-02T14:49:54.649Z,83.00
2018-09-02T14:52:24.463Z,83.50
2018-09-02T14:54:53.309Z,82.80
2018-09-02T14:57:22.549Z,82.90
2018-09-02T14:59:51.346Z,82.50
2018-09-02T15:02:20.287Z,82.70
2018-09-02T15:04:49.162Z,82.00
2018-09-02T15:07:17.918Z,83.00
2018-09-02T15:09:46.689Z,82.70
2018-09-02T15:12:15.370Z,83.30
2018-09-02T15:14:44.105Z,82.50
2018-09-02T15:17:12.921Z,83.90
2018-09-02T15:19:41.748Z,85.10
2018-09-02T15:22:10.545Z,86.30
2018-09-02T15:24:39.281Z,86.90
2018-09-02T15:27:08.434Z,87.50
2018-09-02T15:29:37.523Z,87.00
2018-09-02T15:32:06.576Z,87.30
2018-09-02T15:34:35.359Z,86.50
2018-09-02T15:37:04.298Z,85.90
2018-09-02T15:39:33.162Z,87.00
2018-09-02T15:42:02.545Z,87.00
2018-09-02T15:44:31.433Z,87.80
2018-09-02T15:47:00.267Z,87.40
2018-09-02T15:49:29.154Z,86.90
2018-09-02T15:51:58.020Z,86.10
2018-09-02T15:54:26.892Z,86.20
2018-09-02T15:56:55.725Z,85.50
2018-09-02T15:59:24.816Z,85.80
2018-09-02T16:01:53.557Z,84.90
2018-09-02T16:04:22.558Z,85.90
2018-09-02T16:06:51.445Z,85.50
2018-09-02T16:09:20.284Z,85.90
2018-09-02T16:11:49.188Z,86.50
2018-09-02T16:14:18.002Z,85.90
2018-09-02T16:16:47.795Z,86.70
2018-09-02T16:19:16.533Z,86.50
2018-09-02T16:21:45.303Z,87.40
2018-09-02T16:24:14.119Z,87.20
2018-09-02T16:26:42.919Z,88.80
2018-09-02T16:29:16.578Z,88.80
2018-09-02T16:31:45.175Z,89.40
2018-09-02T16:34:14.121Z,89.40
2018-09-02T16:36:42.931Z,90.00
2018-09-02T16:39:12.193Z,90.10
2018-09-02T16:41:41.030Z,90.70
2018-09-02T16:44:09.878Z,90.30
2018-09-02T16:46:38.802Z,90.40
2018-09-02T16:49:07.654Z,90.40
2018-09-02T16:51:36.510Z,90.70
2018-09-02T16:54:05.945Z,90.70
2018-09-02T16:56:35.090Z,90.90
2018-09-02T16:59:04.046Z,90.90
2018-09-02T17:01:32.893Z,90.90
2018-09-02T17:04:04.579Z,90.90
2018-09-02T17:06:34.460Z,91.00
2018-09-02T17:09:03.495Z,90.90
2018-09-02T17:11:32.368Z,91.20
2018-09-02T17:14:01.206Z,91.30
2018-09-02T17:16:30.304Z,90.90
2018-09-02T17:19:04.017Z,90.90
2018-09-02T17:21:33.008Z,90.70
2018-09-02T17:24:01.826Z,91.00
2018-09-02T17:26:30.718Z,90.90
2018-09-02T17:28:59.483Z,90.80
2018-09-02T17:31:28.400Z,91.00
2018-09-02T17:33:57.251Z,91.20
2018-09-02T17:36:26.055Z,91.20
2018-09-02T17:38:55.891Z,91.40
2018-09-02T17:41:24.677Z,91.80
2018-09-02T17:43:53.475Z,91.60
2018-09-02T17:46:22.232Z,91.60
2018-09-02T17:48:51.091Z,91.70
2018-09-02T17:51:20.022Z,91.80
2018-09-02T17:53:48.871Z,91.70
2018-09-02T17:56:18.945Z,91.30
2018-09-02T17:58:47.928Z,91.40
2018-09-02T18:01:17.010Z,91.30
2018-09-02T18:03:46.292Z,91.30
2018-09-02T18:06:16.136Z,91.30
2018-09-02T18:08:44.960Z,91.30
2018-09-02T18:11:14.139Z,91.20
2018-09-02T18:13:43.018Z,91.10
2018-09-02T18:16:12.086Z,91.40
2018-09-02T18:18:41.076Z,91.30
2018-09-02T18:21:11.257Z,91.40
2018-09-02T18:23:40.208Z,91.30
2018-09-02T18:26:10.060Z,91.60
2018-09-02T18:28:41.946Z,91.60
2018-09-02T18:31:10.777Z,91.50
2018-09-02T18:33:39.641Z,91.70
2018-09-02T18:36:08.513Z,91.70
2018-09-02T18:38:37.421Z,91.90
2018-09-02T18:41:06.538Z,91.70
2018-09-02T18:43:35.462Z,91.90
2018-09-02T18:46:05.116Z,91.70
2018-09-02T18:48:33.999Z,92.00
2018-09-02T18:51:02.933Z,92.10
2018-09-02T18:53:31.805Z,92.50
2018-09-02T18:56:00.640Z,92.40
2018-09-02T18:58:29.607Z,92.40
2018-09-02T19:01:02.729Z,92.50
2018-09-02T19:03:31.697Z,92.40
2018-09-02T19:06:03.031Z,92.70
2018-09-02T19:08:31.849Z,92.70
2018-09-02T19:11:00.613Z,92.90
2018-09-02T19:13:29.398Z,93.00
2018-09-02T19:15:58.228Z,92.90
2018-09-02T19:18:26.967Z,92.60
2018-09-02T19:20:55.872Z,92.80
2018-09-02T19:23:25.798Z,92.70
2018-09-02T19:25:54.652Z,92.50
2018-09-02T19:28:23.509Z,92.80
2018-09-02T19:30:52.344Z,92.50
2018-09-02T19:33:21.229Z,92.90
2018-09-02T19:35:50.071Z,93.00
2018-09-02T19:38:18.987Z,93.10
2018-09-02T19:40:47.837Z,93.00
2018-09-02T19:43:16.713Z,93.00
2018-09-02T19:45:45.537Z,92.60
2018-09-02T19:48:14.508Z,92.90
2018-09-02T19:50:43.462Z,92.70
2018-09-02T19:53:12.565Z,92.60
2018-09-02T19:55:41.322Z,92.30
2018-09-02T19:58:10.158Z,92.50
2018-09-02T20:00:39.011Z,92.70
2018-09-02T20:03:07.825Z,92.60
2018-09-02T20:05:36.739Z,92.80
2018-09-02T20:08:05.600Z,92.60
2018-09-02T20:10:34.359Z,92.70
2018-09-02T20:13:03.133Z,92.70
2018-09-02T20:15:31.957Z,92.80
2018-09-02T20:18:01.377Z,92.70
2018-09-02T20:20:30.132Z,92.70
2018-09-02T20:22:58.849Z,92.70
2018-09-02T20:25:27.756Z,92.70
2018-09-02T20:27:56.620Z,92.50
2018-09-02T20:30:25.558Z,92.70
2018-09-02T20:32:54.436Z,92.80
2018-09-02T20:35:23.298Z,92.80
2018-09-02T20:37:52.160Z,92.70
2018-09-02T20:40:22.036Z,92.90
2018-09-02T20:42:50.983Z,92.90
2018-09-02T20:45:20.023Z,93.00
2018-09-02T20:47:48.914Z,92.80
2018-09-02T20:50:17.877Z,93.00
2018-09-02T20:52:46.653Z,93.40
2018-09-02T20:55:15.534Z,93.10
2018-09-02T20:57:44.266Z,93.40
2018-09-02T21:00:13.290Z,93.60
2018-09-02T21:02:42.267Z,93.60
2018-09-02T21:05:11.229Z,93.50
2018-09-02T21:07:40.212Z,93.50
2018-09-02T21:10:08.997Z,93.40
2018-09-02T21:12:37.780Z,93.50
2018-09-02T21:15:06.796Z,93.80
2018-09-02T21:17:35.596Z,93.80
2018-09-02T21:20:04.785Z,93.70
2018-09-02T21:22:33.653Z,93.80
2018-09-02T21:25:02.501Z,93.80
2018-09-02T21:27:31.229Z,94.20
2018-09-02T21:29:59.890Z,93.90
2018-09-02T21:32:28.606Z,93.80
2018-09-02T21:34:57.402Z,94.00
2018-09-02T21:37:26.272Z,93.90
2018-09-02T21:39:55.024Z,94.10
2018-09-02T21:42:23.753Z,94.20
2018-09-02T21:44:52.954Z,94.40
2018-09-02T21:47:21.717Z,94.30
2018-09-02T21:49:50.507Z,94.60
2018-09-02T21:52:19.489Z,94.70
2018-09-02T21:54:48.517Z,95.00
2018-09-02T21:57:17.140Z,95.00
2018-09-02T21:59:45.996Z,94.70
2018-09-02T22:02:14.623Z,94.80
2018-09-02T22:04:43.381Z,95.00
2018-09-02T22:07:12.165Z,94.90
2018-09-02T22:09:40.909Z,94.80
2018-09-02T22:12:10.216Z,94.80
2018-09-02T22:14:39.024Z,94.40
2018-09-02T22:17:07.901Z,94.90
2018-09-02T22:19:36.763Z,95.00
2018-09-02T22:22:05.692Z,95.00
2018-09-02T22:24:34.428Z,94.80
2018-09-02T22:27:03.183Z,95.10
2018-09-02T22:29:32.104Z,95.10
2018-09-02T22:32:01.161Z,95.10
2018-09-02T22:34:29.919Z,95.10
2018-09-02T22:36:58.649Z,95.20
2018-09-02T22:39:27.419Z,95.20
2018-09-02T22:41:56.307Z,95.10
2018-09-02T22:44:25.084Z,94.90
2018-09-02T22:46:53.730Z,94.80
2018-09-02T22:49:22.508Z,94.80
2018-09-02T22:51:51.198Z,94.70
2018-09-02T22:54:20.031Z,94.80
2018-09-02T22:56:48.726Z,94.70
2018-09-02T22:59:17.491Z,94.70
2018-09-02T23:01:46.351Z,94.70
2018-09-02T23:04:15.240Z,94.70
2018-09-02T23:06:44.094Z,94.70
2018-09-02T23:09:12.759Z,94.70
2018-09-02T23:11:41.460Z,94.70
2018-09-02T23:14:10.160Z,94.50
2018-09-02T23:16:38.976Z,94.70
2018-09-02T23:19:07.737Z,94.80
2018-09-02T23:21:36.495Z,94.80
2018-09-02T23:24:05.480Z,94.80
2018-09-02T23:26:34.200Z,95.00
2018-09-02T23:29:03.232Z,95.10
2018-09-02T23:31:32.008Z,95.20
2018-09-02T23:34:00.716Z,95.30
2018-09-02T23:36:29.484Z,95.40
2018-09-02T23:38:58.260Z,95.40
2018-09-02T23:41:27.137Z,95.30
2018-09-02T23:43:55.994Z,95.10
2018-09-02T23:46:24.812Z,95.10
2018-09-02T23:48:53.736Z,95.20
2018-09-02T23:51:22.589Z,95.40
2018-09-02T23:53:51.228Z,95.90
2018-09-02T23:56:20.017Z,95.80
2018-09-02T23:58:48.844Z,95.70
